KLYH/LYH METAR and TAF weather

Enter ICAO airport designator
Station Type Date Time Source
KLYH METAR 2022/01/26 12:54 UTC NOAA

KLYH 261254Z 03004KT 10SM CLR M04/M09 A3032 RMK AO2 SLP274 T10391094


Station Type Date Time Source
KLYH Decoded METAR 2022/01/26 12:54 UTC NOAA

LYNCHBURG REGIONAL AIRPORT, VA, United States (KLYH) 37-19N 079-12W 295M
Jan 26, 2022 - 07:54 AM EST / 2022.01.26 1254 UTC
Wind: from the NNE (030 degrees) at 5 MPH (4 KT):0
Visibility: 10 mile(s):0
Sky conditions: clear
Temperature: 25.0 F (-3.9 C)
Windchill: 19 F (-7 C):1
Dew Point: 15.1 F (-9.4 C)
Relative Humidity: 65%
Pressure (altimeter): 30.32 in. Hg (1026 hPa)
ob: KLYH 261254Z 03004KT 10SM CLR M04/M09 A3032 RMK AO2 SLP274 T10391094
cycle: 13

Station Type Date Time Source
KLYH TAF 2022/01/26 12:22 UTC NOAA

TAF KLYH 261120Z 2612/2712 01004KT P6SM SCT070
FM261800 33005KT P6SM SKC

Example: see airport list